createdAt,value
2019-05-14T00:01:38.004Z,102209.05
2019-05-14T00:04:11.406Z,102206.87
2019-05-14T00:06:42.281Z,102209.45
2019-05-14T00:09:13.603Z,102202.94
2019-05-14T00:11:44.899Z,102203.42
2019-05-14T00:14:16.259Z,102203.88
2019-05-14T00:16:47.529Z,102200.41
2019-05-14T00:19:18.919Z,102194.38
2019-05-14T00:21:51.442Z,102195.67
2019-05-14T00:24:22.883Z,102189.13
2019-05-14T00:26:54.235Z,102186.95
2019-05-14T00:29:25.640Z,102182.59
2019-05-14T00:31:56.879Z,102190.04
2019-05-14T00:34:28.149Z,102176.05
2019-05-14T00:37:01.409Z,102180.89
2019-05-14T00:39:32.435Z,102183.52
2019-05-14T00:42:03.807Z,102183.97
2019-05-14T00:44:35.098Z,102192.76
2019-05-14T00:47:06.351Z,102193.64
2019-05-14T00:49:37.582Z,102192.81
2019-05-14T00:52:08.858Z,102192.36
2019-05-14T00:54:41.667Z,102191.95
2019-05-14T00:57:13.183Z,102189.36
2019-05-14T00:59:44.516Z,102189.75
2019-05-14T01:02:15.799Z,102198.53
2019-05-14T01:04:47.093Z,102190.67
2019-05-14T01:07:18.379Z,102188.48
2019-05-14T01:09:52.141Z,102186.31
2019-05-14T01:12:22.621Z,102185.42
2019-05-14T01:15:07.216Z,102181.05
2019-05-14T01:17:26.952Z,102176.27
2019-05-14T01:19:58.649Z,102179.75
2019-05-14T01:22:31.625Z,102171.89
2019-05-14T01:25:02.994Z,102167.53
2019-05-14T01:27:34.343Z,102165.38
2019-05-14T01:30:06.195Z,102165.78
2019-05-14T01:32:37.497Z,102164.97
2019-05-14T01:35:08.774Z,102165.39
2019-05-14T01:37:41.693Z,102161.45
2019-05-14T01:40:13.184Z,102151.00
2019-05-14T01:42:44.471Z,102153.66
2019-05-14T01:45:26.972Z,102149.27
2019-05-14T01:47:48.801Z,102147.06
2019-05-14T01:50:21.587Z,102143.16
2019-05-14T01:52:52.950Z,102140.53
2019-05-14T01:55:24.191Z,102147.52
2019-05-14T01:57:55.444Z,102132.25
2019-05-14T02:00:26.792Z,102133.99
2019-05-14T02:02:58.071Z,102125.28
2019-05-14T02:05:31.103Z,102118.28
2019-05-14T02:08:02.272Z,102117.02
2019-05-14T02:10:33.522Z,102122.66
2019-05-14T02:13:04.808Z,102125.73
2019-05-14T02:15:39.719Z,102127.06
2019-05-14T02:18:11.043Z,102127.07
2019-05-14T02:20:42.404Z,102126.65
2019-05-14T02:23:13.697Z,102120.95
2019-05-14T02:25:44.942Z,102115.28
2019-05-14T02:28:16.244Z,102121.84
2019-05-14T02:30:57.026Z,102120.52
2019-05-14T02:33:20.480Z,102119.23
2019-05-14T02:35:51.789Z,102113.55
2019-05-14T02:38:23.071Z,102113.98
2019-05-14T02:40:54.342Z,102111.36
2019-05-14T02:43:29.031Z,102102.64
2019-05-14T02:46:10.849Z,102103.08
2019-05-14T02:48:31.853Z,102106.12
2019-05-14T02:51:03.162Z,102100.91
2019-05-14T02:53:34.422Z,102104.83
2019-05-14T02:56:05.717Z,102101.75
2019-05-14T02:58:39.993Z,102106.12
2019-05-14T03:01:09.999Z,102109.59
2019-05-14T03:03:41.274Z,102107.86
2019-05-14T03:06:12.556Z,102106.98
2019-05-14T03:08:43.808Z,102104.36
2019-05-14T03:11:15.081Z,102106.98
2019-05-14T03:13:49.273Z,102108.72
2019-05-14T03:16:30.129Z,102110.03
2019-05-14T03:18:52.339Z,102105.69
2019-05-14T03:21:23.574Z,102116.59
2019-05-14T03:23:54.879Z,102118.80
2019-05-14T03:26:28.681Z,102116.61
2019-05-14T03:29:00.096Z,102115.28
2019-05-14T03:31:33.561Z,102120.53
2019-05-14T03:34:04.727Z,102112.68
2019-05-14T03:36:36.186Z,102111.81
2019-05-14T03:39:10.546Z,102107.86
2019-05-14T03:41:41.532Z,102117.03
2019-05-14T03:44:12.824Z,102108.30
2019-05-14T03:46:54.321Z,102107.88
2019-05-14T03:49:19.876Z,102108.30
2019-05-14T03:51:50.236Z,102111.78
2019-05-14T03:54:21.503Z,102112.23
2019-05-14T03:56:52.787Z,102111.81
2019-05-14T03:59:24.134Z,102117.91
2019-05-14T04:01:59.382Z,102113.11
2019-05-14T04:04:29.877Z,102110.94
2019-05-14T04:07:04.196Z,102105.69
2019-05-14T04:09:40.491Z,102110.49
2019-05-14T04:12:14.148Z,102112.25
2019-05-14T04:14:50.295Z,102109.17
2019-05-14T04:17:36.705Z,102110.50
2019-05-14T04:20:00.443Z,102112.25
2019-05-14T04:22:34.329Z,102103.06
2019-05-14T04:25:11.256Z,102092.16
2019-05-14T04:27:44.691Z,102094.32
2019-05-14T04:30:20.564Z,102093.47
2019-05-14T04:32:52.079Z,102108.30
2019-05-14T04:35:23.568Z,102104.83
2019-05-14T04:37:54.841Z,102101.32
2019-05-14T04:40:29.445Z,102098.71
2019-05-14T04:42:59.319Z,102096.96
2019-05-14T04:45:30.572Z,102092.14
2019-05-14T04:48:01.896Z,102093.91
2019-05-14T04:50:33.281Z,102088.66
2019-05-14T04:53:04.705Z,102089.97
2019-05-14T04:55:35.989Z,102089.52
2019-05-14T04:58:10.109Z,102083.38
2019-05-14T05:00:40.322Z,102083.83
2019-05-14T05:03:12.586Z,102083.80
2019-05-14T05:05:44.350Z,102086.86
2019-05-14T05:08:15.626Z,102084.64
2019-05-14T05:10:49.484Z,102087.66
2019-05-14T05:13:20.675Z,102084.95
2019-05-14T05:15:51.944Z,102084.03
2019-05-14T05:18:23.202Z,102088.36
2019-05-14T05:20:54.461Z,102096.21
2019-05-14T05:23:27.907Z,102091.34
2019-05-14T05:25:58.784Z,102085.19
2019-05-14T05:28:30.037Z,102078.17
2019-05-14T05:31:01.313Z,102085.59
2019-05-14T05:33:32.554Z,102086.48
2019-05-14T05:36:03.827Z,102089.00
2019-05-14T05:38:35.107Z,102085.02
2019-05-14T05:41:08.744Z,102088.89
2019-05-14T05:43:39.641Z,102080.97
2019-05-14T05:46:10.878Z,102083.17
2019-05-14T05:48:42.178Z,102085.78
2019-05-14T05:51:13.452Z,102081.33
2019-05-14T05:53:44.720Z,102085.22
2019-05-14T05:56:18.454Z,102079.50
2019-05-14T05:58:49.250Z,102078.63
2019-05-14T06:01:20.636Z,102080.83
2019-05-14T06:03:51.934Z,102074.92
2019-05-14T06:06:23.361Z,102073.63
2019-05-14T06:08:54.646Z,102073.11
2019-05-14T06:11:25.986Z,102071.77
2019-05-14T06:13:58.867Z,102070.89
2019-05-14T06:16:30.331Z,102075.65
2019-05-14T06:19:01.619Z,102073.38
2019-05-14T06:21:32.960Z,102079.01
2019-05-14T06:24:04.269Z,102074.92
2019-05-14T06:26:35.563Z,102072.59
2019-05-14T06:29:08.451Z,102072.93
2019-05-14T06:31:39.905Z,102067.44
2019-05-14T06:34:11.177Z,102064.58
2019-05-14T06:36:42.429Z,102065.86
2019-05-14T06:39:13.721Z,102070.16
2019-05-14T06:41:45.016Z,102063.95
2019-05-14T06:44:18.190Z,102059.91
2019-05-14T06:46:52.370Z,102057.98
2019-05-14T06:49:22.303Z,102050.23
2019-05-14T06:51:53.723Z,102047.16
2019-05-14T06:54:24.981Z,102056.09
2019-05-14T06:56:58.281Z,102047.23
2019-05-14T06:59:29.242Z,102057.92
2019-05-14T07:02:00.534Z,102050.27
2019-05-14T07:04:31.826Z,102057.84
2019-05-14T07:07:03.201Z,102058.02
2019-05-14T07:09:34.485Z,102054.80
2019-05-14T07:12:05.921Z,102041.29
2019-05-14T07:14:38.868Z,102049.64
2019-05-14T07:17:10.340Z,102042.01
2019-05-14T07:19:41.582Z,102043.98
2019-05-14T07:22:12.888Z,102046.09
2019-05-14T07:24:44.203Z,102047.39
2019-05-14T07:27:15.483Z,102049.42
2019-05-14T07:29:49.003Z,102053.21
2019-05-14T07:32:19.678Z,102056.86
2019-05-14T07:34:51.037Z,102052.16
2019-05-14T07:37:22.332Z,102058.30
2019-05-14T07:39:53.583Z,102057.16
2019-05-14T07:42:24.876Z,102055.25
2019-05-14T07:44:56.135Z,102057.77
2019-05-14T07:47:29.124Z,102041.41
2019-05-14T07:50:00.967Z,102040.44
2019-05-14T07:52:32.280Z,102036.22
2019-05-14T07:55:03.606Z,102042.58
2019-05-14T07:57:34.980Z,102035.53
2019-05-14T08:00:08.148Z,102034.82
2019-05-14T08:02:39.554Z,102032.88
2019-05-14T08:05:11.116Z,102035.58
2019-05-14T08:07:42.458Z,102032.48
2019-05-14T08:10:14.079Z,102031.50
2019-05-14T08:12:45.465Z,102032.36
2019-05-14T08:15:20.041Z,102035.91
2019-05-14T08:17:50.022Z,102028.11
2019-05-14T08:20:22.309Z,102023.13
2019-05-14T08:22:53.817Z,102026.59
2019-05-14T08:25:25.069Z,102025.27
2019-05-14T08:27:58.531Z,102028.67
2019-05-14T08:30:29.861Z,102027.59
2019-05-14T08:33:01.141Z,102031.06
2019-05-14T08:35:34.060Z,102039.55
2019-05-14T08:38:08.474Z,102038.12
2019-05-14T08:40:38.363Z,102036.47
2019-05-14T08:43:09.684Z,102029.52
2019-05-14T08:45:40.960Z,102033.91
2019-05-14T08:48:12.279Z,102031.92
2019-05-14T08:50:43.647Z,102034.00
2019-05-14T08:53:14.979Z,102034.24
2019-05-14T08:55:48.442Z,102030.77
2019-05-14T08:58:20.354Z,102014.47
2019-05-14T09:00:51.868Z,102011.15
2019-05-14T09:03:23.169Z,102008.85
2019-05-14T09:05:57.726Z,101998.52
2019-05-14T09:08:28.449Z,101997.94
2019-05-14T09:10:59.892Z,101991.02
2019-05-14T09:13:31.180Z,101989.20
2019-05-14T09:16:02.588Z,101974.62
2019-05-14T09:18:33.915Z,101968.06
2019-05-14T09:21:05.204Z,101973.14
2019-05-14T09:23:38.872Z,101968.55
2019-05-14T09:26:09.915Z,101972.03
2019-05-14T09:28:41.192Z,101964.29
2019-05-14T09:31:12.537Z,101975.19
2019-05-14T09:33:43.806Z,101974.37
2019-05-14T09:36:20.513Z,101977.77
2019-05-14T09:38:49.131Z,101976.05
2019-05-14T09:41:20.780Z,101969.58
2019-05-14T09:43:52.073Z,101972.73
2019-05-14T09:46:23.374Z,101971.86
2019-05-14T09:48:54.661Z,101967.95
2019-05-14T09:51:25.945Z,101968.53
2019-05-14T09:53:58.932Z,101966.69
2019-05-14T09:56:30.409Z,101976.53
2019-05-14T09:59:01.709Z,101964.56
2019-05-14T10:01:33.023Z,101962.22
2019-05-14T10:04:04.337Z,101953.59
2019-05-14T10:06:35.583Z,101958.45
2019-05-14T10:09:08.604Z,101957.50
2019-05-14T10:11:40.002Z,101964.45
2019-05-14T10:14:11.332Z,101967.41
2019-05-14T10:16:42.582Z,101970.52
2019-05-14T10:19:13.886Z,101970.33
2019-05-14T10:21:45.163Z,101970.91
2019-05-14T10:24:18.706Z,101972.48
2019-05-14T10:26:49.425Z,101968.73
2019-05-14T10:29:20.715Z,101971.05
2019-05-14T10:31:52.000Z,101964.97
2019-05-14T10:34:23.326Z,101961.80
2019-05-14T10:36:54.604Z,101963.38
2019-05-14T10:39:25.908Z,101950.15
2019-05-14T10:41:57.188Z,101954.53
2019-05-14T10:44:29.247Z,101936.83
2019-05-14T10:47:00.954Z,101930.39
2019-05-14T10:49:32.246Z,101932.25
2019-05-14T10:52:03.540Z,101916.60
2019-05-14T10:54:34.847Z,101903.24
2019-05-14T10:57:06.162Z,101906.22
2019-05-14T10:59:37.432Z,101904.41
2019-05-14T11:02:11.932Z,101909.03
2019-05-14T11:04:41.805Z,101904.09
2019-05-14T11:07:13.174Z,101900.77
2019-05-14T11:09:44.494Z,101910.72
2019-05-14T11:12:15.765Z,101906.36
2019-05-14T11:14:49.185Z,101901.92
2019-05-14T11:17:20.071Z,101887.74
2019-05-14T11:19:51.407Z,101887.02
2019-05-14T11:22:22.738Z,101881.60
2019-05-14T11:24:54.032Z,101876.43
2019-05-14T11:27:25.395Z,101865.16
2019-05-14T11:29:58.649Z,101875.84
2019-05-14T11:32:29.640Z,101875.89
2019-05-14T11:35:00.952Z,101872.63
2019-05-14T11:37:32.310Z,101864.89
2019-05-14T11:40:03.580Z,101865.17
2019-05-14T11:42:34.907Z,101865.36
2019-05-14T11:45:08.910Z,101859.98
2019-05-14T11:47:40.316Z,101856.66
2019-05-14T11:50:12.332Z,101854.47
2019-05-14T11:52:43.687Z,101842.82
2019-05-14T11:55:15.334Z,101844.89
2019-05-14T11:57:48.529Z,101854.45
2019-05-14T12:00:20.297Z,101838.16
2019-05-14T12:02:51.681Z,101832.91
2019-05-14T12:05:22.957Z,101828.41
2019-05-14T12:07:54.253Z,101828.09
2019-05-14T12:10:25.557Z,101826.17
2019-05-14T12:12:58.471Z,101820.69
2019-05-14T12:15:29.808Z,101808.41
2019-05-14T12:18:01.162Z,101809.51
2019-05-14T12:20:32.467Z,101802.83
2019-05-14T12:23:03.721Z,101797.84
2019-05-14T12:25:53.386Z,101796.02
2019-05-14T12:28:43.295Z,101788.34
2019-05-14T12:31:33.525Z,101788.77
2019-05-14T12:34:23.739Z,101784.83
2019-05-14T12:37:13.935Z,101789.62
2019-05-14T12:40:04.322Z,101787.87
2019-05-14T12:42:54.376Z,101786.61
2019-05-14T12:45:43.895Z,101785.72
2019-05-14T12:48:34.058Z,101781.99
2019-05-14T12:51:24.059Z,101786.36
2019-05-14T12:54:14.311Z,101793.16
2019-05-14T12:57:04.625Z,101790.67
2019-05-14T12:59:54.498Z,101781.42
2019-05-14T13:02:44.334Z,101777.13
2019-05-14T13:05:34.834Z,101761.92
2019-05-14T13:08:25.057Z,101769.72
2019-05-14T13:11:14.521Z,101772.47
2019-05-14T13:14:04.426Z,101765.60
2019-05-14T13:16:54.919Z,101759.36
2019-05-14T13:19:44.973Z,101765.75
2019-05-14T13:22:42.455Z,101761.41
2019-05-14T13:25:25.769Z,101756.03
2019-05-14T13:28:19.205Z,101742.34
2019-05-14T13:31:08.960Z,101734.54
2019-05-14T13:33:59.665Z,101745.66
2019-05-14T13:36:49.643Z,101734.55
2019-05-14T13:39:40.320Z,101718.92
2019-05-14T13:42:30.670Z,101722.80
2019-05-14T13:45:21.168Z,101713.09
2019-05-14T13:48:11.061Z,101719.56
2019-05-14T13:51:01.237Z,101724.16
2019-05-14T13:53:51.040Z,101721.37
2019-05-14T13:56:41.266Z,101717.60
2019-05-14T13:59:31.807Z,101706.26
2019-05-14T14:02:21.626Z,101693.73
2019-05-14T14:05:11.147Z,101690.61
2019-05-14T14:08:01.253Z,101698.53
2019-05-14T14:10:53.276Z,101694.97
2019-05-14T14:13:42.995Z,101685.34
2019-05-14T14:16:33.883Z,101684.77
2019-05-14T14:19:23.806Z,101678.68
2019-05-14T14:22:14.018Z,101673.95
2019-05-14T14:25:03.932Z,101671.06
2019-05-14T14:27:39.943Z,101664.12
2019-05-14T14:30:10.593Z,101662.25
2019-05-14T14:32:42.501Z,101665.80
2019-05-14T14:35:15.171Z,101659.38
2019-05-14T14:37:49.375Z,101649.23
2019-05-14T14:40:22.700Z,101651.20
2019-05-14T14:42:54.209Z,101653.09
2019-05-14T14:45:29.020Z,101652.47
2019-05-14T14:48:01.353Z,101639.38
2019-05-14T14:50:33.430Z,101637.61
2019-05-14T14:53:05.312Z,101645.81
2019-05-14T14:55:40.072Z,101633.95
2019-05-14T14:58:11.713Z,101639.59
2019-05-14T15:00:43.824Z,101640.27
2019-05-14T15:03:15.742Z,101639.21
2019-05-14T15:05:49.908Z,101624.98
2019-05-14T15:08:21.281Z,101619.59
2019-05-14T15:10:53.219Z,101614.61
2019-05-14T15:13:25.064Z,101612.09
2019-05-14T15:15:56.937Z,101610.48
2019-05-14T15:18:28.948Z,101604.53
2019-05-14T15:21:00.913Z,101608.42
2019-05-14T15:23:32.229Z,101606.21
2019-05-14T15:26:03.513Z,101592.67
2019-05-14T15:28:34.853Z,101600.52
2019-05-14T15:31:08.518Z,101611.53
2019-05-14T15:33:39.199Z,101612.70
2019-05-14T15:36:10.661Z,101603.25
2019-05-14T15:38:42.100Z,101596.73
2019-05-14T15:41:13.920Z,101590.63
2019-05-14T15:43:45.298Z,101587.77
2019-05-14T15:46:18.479Z,101579.10
2019-05-14T15:48:49.651Z,101586.37
2019-05-14T15:51:20.983Z,101580.65
2019-05-14T15:54:09.223Z,101575.91
2019-05-14T15:56:25.340Z,101584.89
2019-05-14T15:59:01.054Z,101581.26
2019-05-14T16:01:29.808Z,101581.75
2019-05-14T16:04:01.098Z,101567.38
2019-05-14T16:06:32.404Z,101577.00
2019-05-14T16:09:04.610Z,101565.93
2019-05-14T16:11:35.944Z,101564.30
2019-05-14T16:14:08.237Z,101560.86
2019-05-14T16:16:40.337Z,101563.34
2019-05-14T16:19:11.699Z,101564.32
2019-05-14T16:21:43.007Z,101559.85
2019-05-14T16:24:14.355Z,101553.23
2019-05-14T16:26:45.758Z,101555.66
2019-05-14T16:29:19.274Z,101558.53
2019-05-14T16:31:50.137Z,101551.16
2019-05-14T16:34:21.429Z,101556.16
2019-05-14T16:36:52.769Z,101551.05
2019-05-14T16:39:24.233Z,101545.84
2019-05-14T16:41:58.107Z,101545.41
2019-05-14T16:44:28.543Z,101555.77
2019-05-14T16:46:59.858Z,101553.80
2019-05-14T16:49:33.947Z,101546.12
2019-05-14T16:52:04.165Z,101559.94
2019-05-14T16:54:35.462Z,101564.43
2019-05-14T16:57:10.960Z,101562.64
2019-05-14T16:59:40.017Z,101565.35
2019-05-14T17:02:11.372Z,101559.86
2019-05-14T17:04:42.664Z,101554.88
2019-05-14T17:07:14.061Z,101552.83
2019-05-14T17:09:45.358Z,101552.87
2019-05-14T17:12:20.182Z,101553.61
2019-05-14T17:14:49.680Z,101558.31
2019-05-14T17:17:21.061Z,101561.08
2019-05-14T17:19:52.396Z,101556.63
2019-05-14T17:22:29.042Z,101556.45
2019-05-14T17:24:58.646Z,101547.00
2019-05-14T17:27:29.728Z,101551.84
2019-05-14T17:30:01.081Z,101556.64
2019-05-14T17:32:32.453Z,101548.59
2019-05-14T17:35:08.244Z,101543.81
2019-05-14T17:37:39.916Z,101536.97
2019-05-14T17:40:11.802Z,101539.76
2019-05-14T17:42:43.115Z,101544.70
2019-05-14T17:45:14.569Z,101541.08
2019-05-14T17:47:45.932Z,101539.11
2019-05-14T17:50:18.389Z,101537.41
2019-05-14T17:52:56.175Z,101535.06
2019-05-14T17:55:22.963Z,101541.39
2019-05-14T17:57:58.355Z,101541.95
2019-05-14T18:00:28.742Z,101539.20
2019-05-14T18:03:00.350Z,101539.64
2019-05-14T18:05:31.655Z,101536.35
2019-05-14T18:08:03.144Z,101537.19
2019-05-14T18:10:34.426Z,101538.13
2019-05-14T18:13:08.850Z,101527.84
2019-05-14T18:15:39.481Z,101529.47
2019-05-14T18:18:11.129Z,101532.05
2019-05-14T18:20:45.319Z,101529.39
2019-05-14T18:23:18.257Z,101528.68
2019-05-14T18:26:03.311Z,101527.89
2019-05-14T18:28:23.871Z,101524.72
2019-05-14T18:30:55.137Z,101530.03
2019-05-14T18:33:26.332Z,101528.36
2019-05-14T18:35:58.919Z,101530.63
2019-05-14T18:38:30.354Z,101536.11
2019-05-14T18:41:01.580Z,101527.24
2019-05-14T18:43:32.705Z,101527.34
2019-05-14T18:46:04.083Z,101530.83
2019-05-14T18:48:35.849Z,101532.25
2019-05-14T18:51:09.021Z,101521.70
2019-05-14T18:53:40.008Z,101524.86
2019-05-14T18:56:20.323Z,101522.41
2019-05-14T18:58:44.135Z,101519.09
2019-05-14T19:01:15.348Z,101521.95
2019-05-14T19:03:49.187Z,101519.23
2019-05-14T19:06:19.653Z,101514.03
2019-05-14T19:08:50.891Z,101505.94
2019-05-14T19:11:22.155Z,101508.59
2019-05-14T19:13:53.444Z,101507.79
2019-05-14T19:16:25.664Z,101510.13
2019-05-14T19:18:58.502Z,101503.44
2019-05-14T19:21:29.958Z,101503.38
2019-05-14T19:24:01.639Z,101507.25
2019-05-14T19:26:36.906Z,101504.61
2019-05-14T19:29:08.529Z,101514.16
2019-05-14T19:31:39.056Z,101509.69
2019-05-14T19:34:10.378Z,101510.48
2019-05-14T19:36:41.767Z,101512.14
2019-05-14T19:39:13.698Z,101516.83
2019-05-14T19:41:45.044Z,101512.06
2019-05-14T19:44:18.933Z,101506.71
2019-05-14T19:46:49.422Z,101505.36
2019-05-14T19:49:20.756Z,101508.30
2019-05-14T19:51:52.117Z,101504.65
2019-05-14T19:54:23.613Z,101509.81
2019-05-14T19:56:57.471Z,101507.06
2019-05-14T19:59:28.766Z,101503.50
2019-05-14T20:02:00.176Z,101504.30
2019-05-14T20:04:31.636Z,101508.58
2019-05-14T20:07:03.044Z,101504.49
2019-05-14T20:09:34.345Z,101501.37
2019-05-14T20:12:05.875Z,101502.89
2019-05-14T20:14:38.281Z,101503.61
2019-05-14T20:17:10.009Z,101508.26
2019-05-14T20:19:41.473Z,101507.61
2019-05-14T20:22:13.097Z,101504.38
2019-05-14T20:24:44.534Z,101506.83
2019-05-14T20:27:15.862Z,101504.41
2019-05-14T20:29:48.661Z,101504.59
2019-05-14T20:32:20.079Z,101506.94
2019-05-14T20:34:51.366Z,101507.09
2019-05-14T20:37:22.696Z,101501.57
2019-05-14T20:39:54.046Z,101502.62
2019-05-14T20:42:25.409Z,101498.30
2019-05-14T20:44:56.734Z,101499.77
2019-05-14T20:47:28.263Z,101496.44
2019-05-14T20:49:59.519Z,101497.04
2019-05-14T20:52:30.816Z,101494.61
2019-05-14T20:55:02.155Z,101496.02
2019-05-14T20:57:33.762Z,101498.35
2019-05-14T21:00:11.317Z,101494.23
2019-05-14T21:02:41.887Z,101493.08
2019-05-14T21:05:14.986Z,101489.77
2019-05-14T21:07:46.277Z,101492.16
2019-05-14T21:10:19.133Z,101488.79
2019-05-14T21:12:50.617Z,101478.23
2019-05-14T21:15:22.003Z,101474.83
2019-05-14T21:17:53.330Z,101475.37
2019-05-14T21:20:24.636Z,101474.55
2019-05-14T21:22:58.261Z,101472.86
2019-05-14T21:25:29.730Z,101463.40
2019-05-14T21:28:01.109Z,101469.15
2019-05-14T21:30:35.192Z,101470.64
2019-05-14T21:33:05.377Z,101467.66
2019-05-14T21:35:38.743Z,101468.27
2019-05-14T21:38:09.715Z,101467.91
2019-05-14T21:40:41.134Z,101464.03
2019-05-14T21:43:12.476Z,101470.68
2019-05-14T21:45:44.064Z,101467.36
2019-05-14T21:48:19.671Z,101463.11
2019-05-14T21:50:48.503Z,101465.44
2019-05-14T21:53:19.835Z,101463.80
2019-05-14T21:55:51.287Z,101467.33
2019-05-14T21:58:22.593Z,101462.66
2019-05-14T22:00:55.716Z,101461.84
2019-05-14T22:03:28.407Z,101463.56
2019-05-14T22:05:59.857Z,101464.69
2019-05-14T22:08:31.233Z,101467.45
2019-05-14T22:11:02.520Z,101466.63
2019-05-14T22:13:33.878Z,101466.31
2019-05-14T22:16:05.211Z,101469.08
2019-05-14T22:18:38.659Z,101469.20
2019-05-14T22:21:09.562Z,101463.50
2019-05-14T22:23:40.888Z,101458.28
2019-05-14T22:26:12.232Z,101464.95
2019-05-14T22:28:43.550Z,101465.55
2019-05-14T22:31:17.110Z,101466.06
2019-05-14T22:33:47.937Z,101461.73
2019-05-14T22:36:21.338Z,101459.70
2019-05-14T22:38:53.059Z,101460.27
2019-05-14T22:41:24.374Z,101459.95
2019-05-14T22:43:57.584Z,101467.59
2019-05-14T22:46:28.773Z,101463.80
2019-05-14T22:49:00.116Z,101462.98
2019-05-14T22:51:33.172Z,101462.27
2019-05-14T22:54:04.646Z,101457.56
2019-05-14T22:56:35.970Z,101454.22
2019-05-14T22:59:07.700Z,101453.20
2019-05-14T23:01:39.034Z,101455.89
2019-05-14T23:04:10.297Z,101447.28
2019-05-14T23:06:41.583Z,101452.27
2019-05-14T23:09:12.831Z,101449.80
2019-05-14T23:11:44.093Z,101450.87
2019-05-14T23:14:15.363Z,101453.06
2019-05-14T23:16:49.006Z,101458.82
2019-05-14T23:19:19.595Z,101459.75
2019-05-14T23:21:50.879Z,101450.22
2019-05-14T23:24:22.173Z,101452.06
2019-05-14T23:26:53.544Z,101449.58
2019-05-14T23:29:24.798Z,101452.31
2019-05-14T23:31:56.027Z,101451.98
2019-05-14T23:34:28.461Z,101452.47
2019-05-14T23:37:00.332Z,101454.31
2019-05-14T23:39:31.834Z,101449.11
2019-05-14T23:42:03.583Z,101443.89
2019-05-14T23:44:34.875Z,101442.19
2019-05-14T23:47:08.178Z,101442.23
2019-05-14T23:49:39.203Z,101444.38
2019-05-14T23:52:10.487Z,101444.47
2019-05-14T23:54:41.804Z,101441.36
2019-05-14T23:57:13.112Z,101439.80
2019-05-14T23:59:44.507Z,101446.86
